sensor_id;sensor_type;location;lat;lon;timestamp;P1;durP1;ratioP1;P2;durP2;ratioP2
3718;SDS011;1875;52.492;6.860;2023-04-10T00:00:47;87.43;;;54.30;;
3718;SDS011;1875;52.492;6.860;2023-04-10T00:03:22;92.63;;;56.07;;
3718;SDS011;1875;52.492;6.860;2023-04-10T00:05:50;91.10;;;55.97;;
3718;SDS011;1875;52.492;6.860;2023-04-10T00:08:21;93.90;;;56.27;;
3718;SDS011;1875;52.492;6.860;2023-04-10T00:10:49;92.00;;;55.87;;
3718;SDS011;1875;52.492;6.860;2023-04-10T00:13:17;88.30;;;53.17;;
3718;SDS011;1875;52.492;6.860;2023-04-10T00:15:44;91.37;;;54.40;;
3718;SDS011;1875;52.492;6.860;2023-04-10T00:18:12;94.57;;;57.87;;
3718;SDS011;1875;52.492;6.860;2023-04-10T00:20:40;91.07;;;55.17;;
3718;SDS011;1875;52.492;6.860;2023-04-10T00:23:09;90.90;;;56.83;;
3718;SDS011;1875;52.492;6.860;2023-04-10T00:25:38;89.87;;;54.17;;
3718;SDS011;1875;52.492;6.860;2023-04-10T00:28:05;90.33;;;57.27;;
3718;SDS011;1875;52.492;6.860;2023-04-10T00:30:33;93.97;;;57.90;;
3718;SDS011;1875;52.492;6.860;2023-04-10T00:33:01;88.93;;;54.70;;
3718;SDS011;1875;52.492;6.860;2023-04-10T00:35:29;87.87;;;55.13;;
3718;SDS011;1875;52.492;6.860;2023-04-10T00:37:57;93.80;;;57.33;;
3718;SDS011;1875;52.492;6.860;2023-04-10T00:40:24;91.60;;;57.20;;
3718;SDS011;1875;52.492;6.860;2023-04-10T00:42:54;97.77;;;59.60;;
3718;SDS011;1875;52.492;6.860;2023-04-10T00:45:21;92.73;;;58.73;;
3718;SDS011;1875;52.492;6.860;2023-04-10T00:47:49;89.63;;;56.03;;
3718;SDS011;1875;52.492;6.860;2023-04-10T00:50:18;95.17;;;57.70;;
3718;SDS011;1875;52.492;6.860;2023-04-10T00:52:46;89.57;;;57.73;;
3718;SDS011;1875;52.492;6.860;2023-04-10T00:55:14;96.57;;;59.23;;
3718;SDS011;1875;52.492;6.860;2023-04-10T00:57:43;90.33;;;57.33;;
3718;SDS011;1875;52.492;6.860;2023-04-10T01:00:14;93.50;;;59.07;;
3718;SDS011;1875;52.492;6.860;2023-04-10T01:02:42;94.10;;;57.27;;
3718;SDS011;1875;52.492;6.860;2023-04-10T01:05:10;94.37;;;57.63;;
3718;SDS011;1875;52.492;6.860;2023-04-10T01:07:43;91.10;;;56.60;;
3718;SDS011;1875;52.492;6.860;2023-04-10T01:10:21;100.83;;;59.97;;
3718;SDS011;1875;52.492;6.860;2023-04-10T01:12:54;96.13;;;58.43;;
3718;SDS011;1875;52.492;6.860;2023-04-10T01:15:34;101.67;;;58.13;;
3718;SDS011;1875;52.492;6.860;2023-04-10T01:18:06;94.00;;;58.00;;
3718;SDS011;1875;52.492;6.860;2023-04-10T01:20:37;94.70;;;59.43;;
3718;SDS011;1875;52.492;6.860;2023-04-10T01:23:18;101.33;;;59.53;;
3718;SDS011;1875;52.492;6.860;2023-04-10T01:25:57;99.53;;;60.17;;
3718;SDS011;1875;52.492;6.860;2023-04-10T01:31:10;103.03;;;63.10;;
3718;SDS011;1875;52.492;6.860;2023-04-10T01:33:42;93.63;;;59.00;;
3718;SDS011;1875;52.492;6.860;2023-04-10T01:36:12;96.37;;;61.47;;
3718;SDS011;1875;52.492;6.860;2023-04-10T01:38:47;99.97;;;59.53;;
3718;SDS011;1875;52.492;6.860;2023-04-10T01:41:16;95.50;;;57.50;;
3718;SDS011;1875;52.492;6.860;2023-04-10T01:43:47;99.03;;;60.37;;
3718;SDS011;1875;52.492;6.860;2023-04-10T01:46:16;94.43;;;58.77;;
3718;SDS011;1875;52.492;6.860;2023-04-10T01:48:45;90.53;;;56.37;;
3718;SDS011;1875;52.492;6.860;2023-04-10T01:51:13;100.73;;;60.70;;
3718;SDS011;1875;52.492;6.860;2023-04-10T01:53:42;101.77;;;61.47;;
3718;SDS011;1875;52.492;6.860;2023-04-10T01:56:11;92.63;;;57.87;;
3718;SDS011;1875;52.492;6.860;2023-04-10T01:58:39;98.53;;;58.07;;
3718;SDS011;1875;52.492;6.860;2023-04-10T02:01:08;96.63;;;58.00;;
3718;SDS011;1875;52.492;6.860;2023-04-10T02:03:54;92.60;;;56.87;;
3718;SDS011;1875;52.492;6.860;2023-04-10T02:06:25;94.33;;;58.77;;
3718;SDS011;1875;52.492;6.860;2023-04-10T02:08:58;90.20;;;56.70;;
3718;SDS011;1875;52.492;6.860;2023-04-10T02:11:31;91.17;;;57.70;;
3718;SDS011;1875;52.492;6.860;2023-04-10T02:14:03;90.93;;;56.80;;
3718;SDS011;1875;52.492;6.860;2023-04-10T02:16:33;84.87;;;54.87;;
3718;SDS011;1875;52.492;6.860;2023-04-10T02:19:03;94.60;;;57.90;;
3718;SDS011;1875;52.492;6.860;2023-04-10T02:21:32;89.13;;;55.57;;
3718;SDS011;1875;52.492;6.860;2023-04-10T02:24:00;94.47;;;55.20;;
3718;SDS011;1875;52.492;6.860;2023-04-10T02:26:28;97.87;;;56.33;;
3718;SDS011;1875;52.492;6.860;2023-04-10T02:28:55;92.10;;;55.80;;
3718;SDS011;1875;52.492;6.860;2023-04-10T02:31:23;91.70;;;55.57;;
3718;SDS011;1875;52.492;6.860;2023-04-10T02:33:52;88.47;;;54.37;;
3718;SDS011;1875;52.492;6.860;2023-04-10T02:36:20;89.53;;;54.13;;
3718;SDS011;1875;52.492;6.860;2023-04-10T02:38:48;87.40;;;53.77;;
3718;SDS011;1875;52.492;6.860;2023-04-10T02:41:16;94.67;;;57.83;;
3718;SDS011;1875;52.492;6.860;2023-04-10T02:43:44;89.77;;;53.20;;
3718;SDS011;1875;52.492;6.860;2023-04-10T02:46:11;90.90;;;53.20;;
3718;SDS011;1875;52.492;6.860;2023-04-10T02:48:39;87.90;;;54.00;;
3718;SDS011;1875;52.492;6.860;2023-04-10T02:51:08;84.60;;;51.63;;
3718;SDS011;1875;52.492;6.860;2023-04-10T02:53:36;88.97;;;53.43;;
3718;SDS011;1875;52.492;6.860;2023-04-10T02:56:04;83.43;;;50.83;;
3718;SDS011;1875;52.492;6.860;2023-04-10T02:58:33;84.83;;;52.93;;
3718;SDS011;1875;52.492;6.860;2023-04-10T03:01:01;78.93;;;50.17;;
3718;SDS011;1875;52.492;6.860;2023-04-10T03:03:29;76.20;;;48.63;;
3718;SDS011;1875;52.492;6.860;2023-04-10T03:05:57;79.20;;;51.30;;
3718;SDS011;1875;52.492;6.860;2023-04-10T03:08:26;89.03;;;52.53;;
3718;SDS011;1875;52.492;6.860;2023-04-10T03:10:55;83.93;;;51.07;;
3718;SDS011;1875;52.492;6.860;2023-04-10T03:13:23;81.10;;;50.13;;
3718;SDS011;1875;52.492;6.860;2023-04-10T03:15:51;81.97;;;51.03;;
3718;SDS011;1875;52.492;6.860;2023-04-10T03:18:19;81.13;;;51.87;;
3718;SDS011;1875;52.492;6.860;2023-04-10T03:20:47;78.70;;;50.20;;
3718;SDS011;1875;52.492;6.860;2023-04-10T03:23:15;79.77;;;50.20;;
3718;SDS011;1875;52.492;6.860;2023-04-10T03:25:44;81.63;;;50.50;;
3718;SDS011;1875;52.492;6.860;2023-04-10T03:28:16;83.37;;;49.80;;
3718;SDS011;1875;52.492;6.860;2023-04-10T03:30:43;83.10;;;50.90;;
3718;SDS011;1875;52.492;6.860;2023-04-10T03:33:11;80.53;;;49.53;;
3718;SDS011;1875;52.492;6.860;2023-04-10T03:35:39;75.53;;;48.67;;
3718;SDS011;1875;52.492;6.860;2023-04-10T03:38:07;76.07;;;47.23;;
3718;SDS011;1875;52.492;6.860;2023-04-10T03:40:35;78.87;;;49.77;;
3718;SDS011;1875;52.492;6.860;2023-04-10T03:43:04;77.83;;;49.70;;
3718;SDS011;1875;52.492;6.860;2023-04-10T03:45:32;78.67;;;47.50;;
3718;SDS011;1875;52.492;6.860;2023-04-10T03:47:59;71.47;;;45.50;;
3718;SDS011;1875;52.492;6.860;2023-04-10T03:50:27;69.10;;;44.47;;
3718;SDS011;1875;52.492;6.860;2023-04-10T03:52:55;72.47;;;45.67;;
3718;SDS011;1875;52.492;6.860;2023-04-10T03:55:23;74.77;;;45.50;;
3718;SDS011;1875;52.492;6.860;2023-04-10T03:57:51;74.77;;;46.07;;
3718;SDS011;1875;52.492;6.860;2023-04-10T04:00:20;70.63;;;44.83;;
3718;SDS011;1875;52.492;6.860;2023-04-10T04:02:48;72.67;;;44.27;;
3718;SDS011;1875;52.492;6.860;2023-04-10T04:05:17;76.07;;;44.50;;
3718;SDS011;1875;52.492;6.860;2023-04-10T04:07:45;73.10;;;45.17;;
3718;SDS011;1875;52.492;6.860;2023-04-10T04:10:13;79.33;;;48.27;;
3718;SDS011;1875;52.492;6.860;2023-04-10T04:12:41;73.37;;;46.97;;
3718;SDS011;1875;52.492;6.860;2023-04-10T04:15:09;76.53;;;47.20;;
3718;SDS011;1875;52.492;6.860;2023-04-10T04:17:38;73.40;;;46.40;;
3718;SDS011;1875;52.492;6.860;2023-04-10T04:20:06;75.63;;;47.30;;
3718;SDS011;1875;52.492;6.860;2023-04-10T04:22:35;72.43;;;44.83;;
3718;SDS011;1875;52.492;6.860;2023-04-10T04:25:03;78.87;;;46.90;;
3718;SDS011;1875;52.492;6.860;2023-04-10T04:27:34;76.63;;;47.40;;
3718;SDS011;1875;52.492;6.860;2023-04-10T04:30:01;77.47;;;48.47;;
3718;SDS011;1875;52.492;6.860;2023-04-10T04:32:29;74.93;;;47.07;;
3718;SDS011;1875;52.492;6.860;2023-04-10T04:34:59;84.50;;;49.47;;
3718;SDS011;1875;52.492;6.860;2023-04-10T04:37:26;71.70;;;46.37;;
3718;SDS011;1875;52.492;6.860;2023-04-10T04:39:54;79.90;;;47.60;;
3718;SDS011;1875;52.492;6.860;2023-04-10T04:42:22;77.57;;;48.47;;
3718;SDS011;1875;52.492;6.860;2023-04-10T04:44:50;79.23;;;46.90;;
3718;SDS011;1875;52.492;6.860;2023-04-10T04:47:18;75.50;;;46.53;;
3718;SDS011;1875;52.492;6.860;2023-04-10T04:49:45;80.17;;;48.83;;
3718;SDS011;1875;52.492;6.860;2023-04-10T04:52:15;74.07;;;46.30;;
3718;SDS011;1875;52.492;6.860;2023-04-10T04:54:42;83.23;;;48.33;;
3718;SDS011;1875;52.492;6.860;2023-04-10T04:57:10;78.33;;;48.30;;
3718;SDS011;1875;52.492;6.860;2023-04-10T04:59:38;75.70;;;46.87;;
3718;SDS011;1875;52.492;6.860;2023-04-10T05:02:06;77.30;;;47.97;;
3718;SDS011;1875;52.492;6.860;2023-04-10T05:04:33;80.40;;;47.80;;
3718;SDS011;1875;52.492;6.860;2023-04-10T05:07:01;76.67;;;47.57;;
3718;SDS011;1875;52.492;6.860;2023-04-10T05:09:30;78.60;;;47.70;;
3718;SDS011;1875;52.492;6.860;2023-04-10T05:11:58;77.80;;;48.50;;
3718;SDS011;1875;52.492;6.860;2023-04-10T05:14:25;75.80;;;46.00;;
3718;SDS011;1875;52.492;6.860;2023-04-10T05:16:53;79.03;;;46.43;;
3718;SDS011;1875;52.492;6.860;2023-04-10T05:19:21;76.40;;;47.73;;
3718;SDS011;1875;52.492;6.860;2023-04-10T05:21:49;75.40;;;47.27;;
3718;SDS011;1875;52.492;6.860;2023-04-10T05:24:16;79.13;;;48.63;;
3718;SDS011;1875;52.492;6.860;2023-04-10T05:26:46;78.47;;;48.00;;
3718;SDS011;1875;52.492;6.860;2023-04-10T05:29:13;74.67;;;45.73;;
3718;SDS011;1875;52.492;6.860;2023-04-10T05:31:41;72.67;;;48.43;;
3718;SDS011;1875;52.492;6.860;2023-04-10T05:34:09;74.23;;;46.57;;
3718;SDS011;1875;52.492;6.860;2023-04-10T05:36:37;75.43;;;47.93;;
3718;SDS011;1875;52.492;6.860;2023-04-10T05:39:04;77.03;;;46.93;;
3718;SDS011;1875;52.492;6.860;2023-04-10T05:41:32;77.27;;;46.77;;
3718;SDS011;1875;52.492;6.860;2023-04-10T05:44:01;73.90;;;46.73;;
3718;SDS011;1875;52.492;6.860;2023-04-10T05:46:29;75.97;;;46.67;;
3718;SDS011;1875;52.492;6.860;2023-04-10T05:48:57;69.93;;;43.87;;
3718;SDS011;1875;52.492;6.860;2023-04-10T05:51:24;70.37;;;44.00;;
3718;SDS011;1875;52.492;6.860;2023-04-10T05:53:52;68.93;;;43.43;;
3718;SDS011;1875;52.492;6.860;2023-04-10T05:56:20;68.40;;;43.73;;
3718;SDS011;1875;52.492;6.860;2023-04-10T05:58:48;73.87;;;43.90;;
3718;SDS011;1875;52.492;6.860;2023-04-10T06:01:17;68.00;;;43.93;;
3718;SDS011;1875;52.492;6.860;2023-04-10T06:03:44;62.93;;;41.20;;
3718;SDS011;1875;52.492;6.860;2023-04-10T06:06:13;69.40;;;43.40;;
3718;SDS011;1875;52.492;6.860;2023-04-10T06:08:41;69.53;;;43.20;;
3718;SDS011;1875;52.492;6.860;2023-04-10T06:11:08;64.23;;;41.20;;
3718;SDS011;1875;52.492;6.860;2023-04-10T06:13:36;69.30;;;43.70;;
3718;SDS011;1875;52.492;6.860;2023-04-10T06:16:04;66.53;;;42.20;;
3718;SDS011;1875;52.492;6.860;2023-04-10T06:18:34;67.73;;;41.50;;
3718;SDS011;1875;52.492;6.860;2023-04-10T06:21:02;66.97;;;41.53;;
3718;SDS011;1875;52.492;6.860;2023-04-10T06:23:30;57.67;;;37.90;;
3718;SDS011;1875;52.492;6.860;2023-04-10T06:25:58;63.27;;;40.23;;
3718;SDS011;1875;52.492;6.860;2023-04-10T06:28:26;66.27;;;41.43;;
3718;SDS011;1875;52.492;6.860;2023-04-10T06:30:54;57.87;;;38.63;;
3718;SDS011;1875;52.492;6.860;2023-04-10T06:33:22;58.70;;;38.40;;
3718;SDS011;1875;52.492;6.860;2023-04-10T06:35:53;61.27;;;40.60;;
3718;SDS011;1875;52.492;6.860;2023-04-10T06:38:21;58.10;;;38.73;;
3718;SDS011;1875;52.492;6.860;2023-04-10T06:40:49;59.67;;;39.43;;
3718;SDS011;1875;52.492;6.860;2023-04-10T06:43:16;55.37;;;36.67;;
3718;SDS011;1875;52.492;6.860;2023-04-10T06:45:44;54.90;;;37.20;;
3718;SDS011;1875;52.492;6.860;2023-04-10T06:48:12;59.33;;;37.97;;
3718;SDS011;1875;52.492;6.860;2023-04-10T06:50:40;51.87;;;34.63;;
3718;SDS011;1875;52.492;6.860;2023-04-10T06:53:09;49.40;;;33.37;;
3718;SDS011;1875;52.492;6.860;2023-04-10T06:55:37;51.17;;;33.53;;
3718;SDS011;1875;52.492;6.860;2023-04-10T06:58:05;48.13;;;33.53;;
3718;SDS011;1875;52.492;6.860;2023-04-10T07:00:32;50.47;;;32.23;;
3718;SDS011;1875;52.492;6.860;2023-04-10T07:03:00;49.33;;;32.47;;
3718;SDS011;1875;52.492;6.860;2023-04-10T07:05:28;50.10;;;31.53;;
3718;SDS011;1875;52.492;6.860;2023-04-10T07:07:56;45.70;;;31.40;;
3718;SDS011;1875;52.492;6.860;2023-04-10T07:10:25;47.27;;;31.27;;
3718;SDS011;1875;52.492;6.860;2023-04-10T07:12:53;44.43;;;28.87;;
3718;SDS011;1875;52.492;6.860;2023-04-10T07:15:22;38.07;;;26.97;;
3718;SDS011;1875;52.492;6.860;2023-04-10T07:17:50;40.60;;;27.47;;
3718;SDS011;1875;52.492;6.860;2023-04-10T07:20:18;38.60;;;26.20;;
3718;SDS011;1875;52.492;6.860;2023-04-10T07:22:45;36.07;;;24.53;;
3718;SDS011;1875;52.492;6.860;2023-04-10T07:25:13;39.10;;;25.40;;
3718;SDS011;1875;52.492;6.860;2023-04-10T07:27:43;38.83;;;24.43;;
3718;SDS011;1875;52.492;6.860;2023-04-10T07:30:11;35.30;;;24.50;;
3718;SDS011;1875;52.492;6.860;2023-04-10T07:32:39;38.20;;;24.70;;
3718;SDS011;1875;52.492;6.860;2023-04-10T07:35:08;40.70;;;25.73;;
3718;SDS011;1875;52.492;6.860;2023-04-10T07:37:36;36.13;;;23.60;;
3718;SDS011;1875;52.492;6.860;2023-04-10T07:40:05;32.67;;;22.10;;
3718;SDS011;1875;52.492;6.860;2023-04-10T07:42:34;32.13;;;21.60;;
3718;SDS011;1875;52.492;6.860;2023-04-10T07:45:06;32.47;;;22.50;;
3718;SDS011;1875;52.492;6.860;2023-04-10T07:47:34;30.00;;;21.53;;
3718;SDS011;1875;52.492;6.860;2023-04-10T07:50:03;27.03;;;19.97;;
3718;SDS011;1875;52.492;6.860;2023-04-10T07:52:31;29.13;;;19.50;;
3718;SDS011;1875;52.492;6.860;2023-04-10T07:55:00;28.30;;;19.33;;
3718;SDS011;1875;52.492;6.860;2023-04-10T07:57:28;26.53;;;19.37;;
3718;SDS011;1875;52.492;6.860;2023-04-10T07:59:57;26.67;;;18.67;;
3718;SDS011;1875;52.492;6.860;2023-04-10T08:02:26;26.13;;;17.53;;
3718;SDS011;1875;52.492;6.860;2023-04-10T08:04:54;29.07;;;17.47;;
3718;SDS011;1875;52.492;6.860;2023-04-10T08:07:23;24.87;;;17.37;;
3718;SDS011;1875;52.492;6.860;2023-04-10T08:09:51;24.47;;;17.27;;
3718;SDS011;1875;52.492;6.860;2023-04-10T08:12:19;26.23;;;17.00;;
3718;SDS011;1875;52.492;6.860;2023-04-10T08:14:46;23.90;;;17.03;;
3718;SDS011;1875;52.492;6.860;2023-04-10T08:17:17;25.83;;;17.10;;
3718;SDS011;1875;52.492;6.860;2023-04-10T08:19:46;22.03;;;16.67;;
3718;SDS011;1875;52.492;6.860;2023-04-10T08:22:13;23.70;;;16.73;;
3718;SDS011;1875;52.492;6.860;2023-04-10T08:24:41;28.43;;;15.73;;
3718;SDS011;1875;52.492;6.860;2023-04-10T08:27:09;23.60;;;17.20;;
3718;SDS011;1875;52.492;6.860;2023-04-10T08:29:37;24.43;;;16.83;;
3718;SDS011;1875;52.492;6.860;2023-04-10T08:32:05;25.07;;;17.00;;
3718;SDS011;1875;52.492;6.860;2023-04-10T08:34:32;21.97;;;16.53;;
3718;SDS011;1875;52.492;6.860;2023-04-10T08:37:05;24.63;;;16.93;;
3718;SDS011;1875;52.492;6.860;2023-04-10T08:39:37;21.10;;;15.77;;
3718;SDS011;1875;52.492;6.860;2023-04-10T08:42:05;22.07;;;15.77;;
3718;SDS011;1875;52.492;6.860;2023-04-10T08:44:33;21.20;;;15.50;;
3718;SDS011;1875;52.492;6.860;2023-04-10T08:47:02;20.87;;;15.63;;
3718;SDS011;1875;52.492;6.860;2023-04-10T08:49:30;25.47;;;15.07;;
3718;SDS011;1875;52.492;6.860;2023-04-10T08:52:01;20.77;;;15.37;;
3718;SDS011;1875;52.492;6.860;2023-04-10T08:54:34;18.40;;;14.70;;
3718;SDS011;1875;52.492;6.860;2023-04-10T08:57:04;19.70;;;14.37;;
3718;SDS011;1875;52.492;6.860;2023-04-10T08:59:36;17.03;;;12.07;;
3718;SDS011;1875;52.492;6.860;2023-04-10T09:02:03;16.97;;;12.40;;
3718;SDS011;1875;52.492;6.860;2023-04-10T09:04:32;21.27;;;12.53;;
3718;SDS011;1875;52.492;6.860;2023-04-10T09:07:00;16.87;;;11.53;;
3718;SDS011;1875;52.492;6.860;2023-04-10T09:09:30;18.30;;;11.93;;
3718;SDS011;1875;52.492;6.860;2023-04-10T09:11:58;16.27;;;11.40;;
3718;SDS011;1875;52.492;6.860;2023-04-10T09:14:28;15.10;;;11.63;;
3718;SDS011;1875;52.492;6.860;2023-04-10T09:17:09;14.93;;;10.70;;
3718;SDS011;1875;52.492;6.860;2023-04-10T09:19:38;13.43;;;10.67;;
3718;SDS011;1875;52.492;6.860;2023-04-10T09:22:06;15.57;;;11.83;;
3718;SDS011;1875;52.492;6.860;2023-04-10T09:24:36;13.87;;;10.13;;
3718;SDS011;1875;52.492;6.860;2023-04-10T09:27:04;15.47;;;11.47;;
3718;SDS011;1875;52.492;6.860;2023-04-10T09:29:42;16.23;;;12.40;;
3718;SDS011;1875;52.492;6.860;2023-04-10T09:32:11;15.83;;;11.23;;
3718;SDS011;1875;52.492;6.860;2023-04-10T09:34:51;16.33;;;11.27;;
3718;SDS011;1875;52.492;6.860;2023-04-10T09:37:20;15.27;;;11.47;;
3718;SDS011;1875;52.492;6.860;2023-04-10T09:39:49;14.77;;;11.07;;
3718;SDS011;1875;52.492;6.860;2023-04-10T09:42:17;15.93;;;10.97;;
3718;SDS011;1875;52.492;6.860;2023-04-10T09:44:56;11.77;;;9.43;;
3718;SDS011;1875;52.492;6.860;2023-04-10T09:47:24;11.23;;;9.17;;
3718;SDS011;1875;52.492;6.860;2023-04-10T09:49:53;11.90;;;8.70;;
3718;SDS011;1875;52.492;6.860;2023-04-10T09:52:22;10.23;;;7.83;;
3718;SDS011;1875;52.492;6.860;2023-04-10T09:54:53;9.80;;;7.70;;
3718;SDS011;1875;52.492;6.860;2023-04-10T09:57:22;10.17;;;7.40;;
3718;SDS011;1875;52.492;6.860;2023-04-10T09:59:51;9.60;;;7.37;;
3718;SDS011;1875;52.492;6.860;2023-04-10T10:02:20;11.07;;;8.43;;
3718;SDS011;1875;52.492;6.860;2023-04-10T10:04:49;9.73;;;7.50;;
3718;SDS011;1875;52.492;6.860;2023-04-10T10:07:19;8.83;;;7.13;;
3718;SDS011;1875;52.492;6.860;2023-04-10T10:09:48;14.13;;;7.90;;
3718;SDS011;1875;52.492;6.860;2023-04-10T10:12:20;8.33;;;6.73;;
3718;SDS011;1875;52.492;6.860;2023-04-10T10:14:52;9.03;;;7.17;;
3718;SDS011;1875;52.492;6.860;2023-04-10T10:17:24;9.37;;;6.60;;
3718;SDS011;1875;52.492;6.860;2023-04-10T10:19:58;9.57;;;6.73;;
3718;SDS011;1875;52.492;6.860;2023-04-10T10:22:28;8.73;;;6.47;;
3718;SDS011;1875;52.492;6.860;2023-04-10T10:24:55;9.00;;;6.00;;
3718;SDS011;1875;52.492;6.860;2023-04-10T10:27:26;10.00;;;6.83;;
3718;SDS011;1875;52.492;6.860;2023-04-10T10:29:56;10.13;;;7.03;;
3718;SDS011;1875;52.492;6.860;2023-04-10T10:32:30;8.40;;;6.27;;
3718;SDS011;1875;52.492;6.860;2023-04-10T10:34:59;7.60;;;5.97;;
3718;SDS011;1875;52.492;6.860;2023-04-10T10:37:27;7.93;;;5.70;;
3718;SDS011;1875;52.492;6.860;2023-04-10T10:39:56;7.47;;;5.43;;
3718;SDS011;1875;52.492;6.860;2023-04-10T10:42:29;6.83;;;5.40;;
3718;SDS011;1875;52.492;6.860;2023-04-10T10:45:06;6.53;;;5.73;;
3718;SDS011;1875;52.492;6.860;2023-04-10T10:47:38;5.87;;;4.63;;
3718;SDS011;1875;52.492;6.860;2023-04-10T10:50:07;8.67;;;4.90;;
3718;SDS011;1875;52.492;6.860;2023-04-10T10:52:36;5.80;;;4.60;;
3718;SDS011;1875;52.492;6.860;2023-04-10T10:55:27;5.83;;;4.93;;
3718;SDS011;1875;52.492;6.860;2023-04-10T10:58:02;6.40;;;4.90;;
3718;SDS011;1875;52.492;6.860;2023-04-10T11:03:35;5.57;;;4.20;;
3718;SDS011;1875;52.492;6.860;2023-04-10T11:06:05;4.87;;;4.17;;
3718;SDS011;1875;52.492;6.860;2023-04-10T11:08:40;9.07;;;4.10;;
3718;SDS011;1875;52.492;6.860;2023-04-10T11:11:12;4.17;;;3.63;;
3718;SDS011;1875;52.492;6.860;2023-04-10T11:16:44;4.43;;;3.63;;
3718;SDS011;1875;52.492;6.860;2023-04-10T11:19:15;6.07;;;4.60;;
3718;SDS011;1875;52.492;6.860;2023-04-10T11:21:59;5.77;;;3.70;;
3718;SDS011;1875;52.492;6.860;2023-04-10T11:24:56;4.90;;;3.97;;
3718;SDS011;1875;52.492;6.860;2023-04-10T11:27:41;5.10;;;3.47;;
3718;SDS011;1875;52.492;6.860;2023-04-10T11:30:25;4.83;;;3.73;;
3718;SDS011;1875;52.492;6.860;2023-04-10T11:32:54;7.23;;;4.03;;
3718;SDS011;1875;52.492;6.860;2023-04-10T11:35:22;4.93;;;4.00;;
3718;SDS011;1875;52.492;6.860;2023-04-10T11:37:50;5.87;;;4.00;;
3718;SDS011;1875;52.492;6.860;2023-04-10T11:40:18;6.03;;;3.90;;
3718;SDS011;1875;52.492;6.860;2023-04-10T11:42:46;6.50;;;4.33;;
3718;SDS011;1875;52.492;6.860;2023-04-10T11:45:27;6.17;;;3.93;;
3718;SDS011;1875;52.492;6.860;2023-04-10T11:47:56;7.30;;;4.10;;
3718;SDS011;1875;52.492;6.860;2023-04-10T11:50:23;5.73;;;4.27;;
3718;SDS011;1875;52.492;6.860;2023-04-10T11:52:57;5.57;;;4.03;;
3718;SDS011;1875;52.492;6.860;2023-04-10T11:55:34;6.20;;;4.17;;
3718;SDS011;1875;52.492;6.860;2023-04-10T11:58:03;9.07;;;4.10;;
3718;SDS011;1875;52.492;6.860;2023-04-10T12:00:33;6.13;;;3.70;;
3718;SDS011;1875;52.492;6.860;2023-04-10T12:03:00;4.23;;;3.30;;
3718;SDS011;1875;52.492;6.860;2023-04-10T12:05:33;7.97;;;4.10;;
3718;SDS011;1875;52.492;6.860;2023-04-10T12:08:11;4.70;;;3.80;;
3718;SDS011;1875;52.492;6.860;2023-04-10T12:10:48;5.80;;;3.77;;
3718;SDS011;1875;52.492;6.860;2023-04-10T12:13:23;4.60;;;3.53;;
3718;SDS011;1875;52.492;6.860;2023-04-10T12:15:52;5.07;;;4.00;;
3718;SDS011;1875;52.492;6.860;2023-04-10T12:18:20;4.47;;;3.30;;
3718;SDS011;1875;52.492;6.860;2023-04-10T12:20:48;5.77;;;3.50;;
3718;SDS011;1875;52.492;6.860;2023-04-10T12:23:21;4.67;;;3.80;;
3718;SDS011;1875;52.492;6.860;2023-04-10T12:25:49;4.80;;;3.50;;
3718;SDS011;1875;52.492;6.860;2023-04-10T12:28:18;4.87;;;3.40;;
3718;SDS011;1875;52.492;6.860;2023-04-10T12:30:48;5.40;;;3.40;;
3718;SDS011;1875;52.492;6.860;2023-04-10T12:33:22;5.17;;;3.90;;
3718;SDS011;1875;52.492;6.860;2023-04-10T12:35:51;4.63;;;3.70;;
3718;SDS011;1875;52.492;6.860;2023-04-10T12:38:38;4.33;;;3.47;;
3718;SDS011;1875;52.492;6.860;2023-04-10T12:41:07;7.40;;;3.17;;
3718;SDS011;1875;52.492;6.860;2023-04-10T12:43:37;4.90;;;3.27;;
3718;SDS011;1875;52.492;6.860;2023-04-10T12:46:05;4.53;;;3.20;;
3718;SDS011;1875;52.492;6.860;2023-04-10T12:48:36;4.67;;;3.00;;
3718;SDS011;1875;52.492;6.860;2023-04-10T12:51:03;4.23;;;3.50;;
3718;SDS011;1875;52.492;6.860;2023-04-10T12:53:41;4.37;;;3.20;;
3718;SDS011;1875;52.492;6.860;2023-04-10T12:56:09;5.83;;;3.20;;
3718;SDS011;1875;52.492;6.860;2023-04-10T12:58:37;4.90;;;2.77;;
3718;SDS011;1875;52.492;6.860;2023-04-10T13:01:08;3.97;;;3.23;;
3718;SDS011;1875;52.492;6.860;2023-04-10T13:03:37;6.50;;;3.30;;
3718;SDS011;1875;52.492;6.860;2023-04-10T13:06:05;3.43;;;3.03;;
3718;SDS011;1875;52.492;6.860;2023-04-10T13:08:33;4.27;;;3.00;;
3718;SDS011;1875;52.492;6.860;2023-04-10T13:11:01;4.57;;;3.23;;
3718;SDS011;1875;52.492;6.860;2023-04-10T13:13:29;4.97;;;3.47;;
3718;SDS011;1875;52.492;6.860;2023-04-10T13:15:58;5.47;;;2.90;;
3718;SDS011;1875;52.492;6.860;2023-04-10T13:18:26;4.43;;;3.40;;
3718;SDS011;1875;52.492;6.860;2023-04-10T13:20:55;3.57;;;2.80;;
3718;SDS011;1875;52.492;6.860;2023-04-10T13:23:22;5.83;;;3.07;;
3718;SDS011;1875;52.492;6.860;2023-04-10T13:25:50;4.03;;;2.77;;
3718;SDS011;1875;52.492;6.860;2023-04-10T13:28:18;2.87;;;2.67;;
3718;SDS011;1875;52.492;6.860;2023-04-10T13:30:46;3.53;;;3.03;;
3718;SDS011;1875;52.492;6.860;2023-04-10T13:33:14;9.30;;;5.33;;
3718;SDS011;1875;52.492;6.860;2023-04-10T13:35:42;9.43;;;5.97;;
3718;SDS011;1875;52.492;6.860;2023-04-10T13:38:11;7.50;;;4.27;;
3718;SDS011;1875;52.492;6.860;2023-04-10T13:40:38;13.50;;;8.07;;
3718;SDS011;1875;52.492;6.860;2023-04-10T13:43:06;4.93;;;4.13;;
3718;SDS011;1875;52.492;6.860;2023-04-10T13:45:34;3.97;;;3.07;;
3718;SDS011;1875;52.492;6.860;2023-04-10T13:48:02;4.47;;;2.97;;
3718;SDS011;1875;52.492;6.860;2023-04-10T13:50:32;5.13;;;3.47;;
3718;SDS011;1875;52.492;6.860;2023-04-10T13:53:00;3.83;;;3.10;;
3718;SDS011;1875;52.492;6.860;2023-04-10T13:55:29;4.50;;;3.07;;
3718;SDS011;1875;52.492;6.860;2023-04-10T13:57:57;4.87;;;3.27;;
3718;SDS011;1875;52.492;6.860;2023-04-10T14:00:25;3.77;;;3.20;;
3718;SDS011;1875;52.492;6.860;2023-04-10T14:02:52;3.33;;;2.90;;
3718;SDS011;1875;52.492;6.860;2023-04-10T14:05:21;4.07;;;3.03;;
3718;SDS011;1875;52.492;6.860;2023-04-10T14:07:48;3.67;;;2.83;;
3718;SDS011;1875;52.492;6.860;2023-04-10T14:10:22;3.37;;;2.83;;
3718;SDS011;1875;52.492;6.860;2023-04-10T14:12:51;5.53;;;3.00;;
3718;SDS011;1875;52.492;6.860;2023-04-10T14:15:18;3.33;;;2.70;;
3718;SDS011;1875;52.492;6.860;2023-04-10T14:17:46;4.27;;;3.23;;
3718;SDS011;1875;52.492;6.860;2023-04-10T14:20:14;9.10;;;6.20;;
3718;SDS011;1875;52.492;6.860;2023-04-10T14:22:41;28.97;;;24.37;;
3718;SDS011;1875;52.492;6.860;2023-04-10T14:25:09;5.10;;;3.97;;
3718;SDS011;1875;52.492;6.860;2023-04-10T14:27:41;5.03;;;3.03;;
3718;SDS011;1875;52.492;6.860;2023-04-10T14:30:10;4.90;;;2.77;;
3718;SDS011;1875;52.492;6.860;2023-04-10T14:32:39;3.07;;;2.57;;
3718;SDS011;1875;52.492;6.860;2023-04-10T14:35:07;8.23;;;3.00;;
3718;SDS011;1875;52.492;6.860;2023-04-10T14:37:35;4.33;;;2.80;;
3718;SDS011;1875;52.492;6.860;2023-04-10T14:40:04;3.60;;;3.00;;
3718;SDS011;1875;52.492;6.860;2023-04-10T14:42:32;6.50;;;3.10;;
3718;SDS011;1875;52.492;6.860;2023-04-10T14:45:00;4.67;;;4.10;;
3718;SDS011;1875;52.492;6.860;2023-04-10T14:47:29;4.40;;;2.80;;
3718;SDS011;1875;52.492;6.860;2023-04-10T14:49:57;3.53;;;2.60;;
3718;SDS011;1875;52.492;6.860;2023-04-10T14:52:25;3.90;;;2.83;;
3718;SDS011;1875;52.492;6.860;2023-04-10T14:54:52;4.23;;;2.90;;
3718;SDS011;1875;52.492;6.860;2023-04-10T14:57:20;3.40;;;2.87;;
3718;SDS011;1875;52.492;6.860;2023-04-10T14:59:48;3.43;;;2.90;;
3718;SDS011;1875;52.492;6.860;2023-04-10T15:02:15;3.00;;;2.70;;
3718;SDS011;1875;52.492;6.860;2023-04-10T15:04:45;10.30;;;3.07;;
3718;SDS011;1875;52.492;6.860;2023-04-10T15:07:12;4.53;;;2.60;;
3718;SDS011;1875;52.492;6.860;2023-04-10T15:09:40;3.83;;;2.60;;
3718;SDS011;1875;52.492;6.860;2023-04-10T15:12:09;4.13;;;2.80;;
3718;SDS011;1875;52.492;6.860;2023-04-10T15:14:37;4.70;;;3.13;;
3718;SDS011;1875;52.492;6.860;2023-04-10T15:17:05;3.60;;;2.10;;
3718;SDS011;1875;52.492;6.860;2023-04-10T15:19:32;5.57;;;2.70;;